Time;durP1;ratioP1;P1;durP2;ratioP2;P2;SDS_P1;SDS_P2;PMS_P1;PMS_P2;Temp;Humidity;BMP_temperature;BMP_pressure;BME280_temperature;BME280_humidity;BME280_pressure;Samples;Min_cycle;Max_cycle;Signal;HPM_P1;HPM_P2
2021/11/20 00:00:34;;;;;;;64.92;32.95;;;;;;;5.49;100.00;99680.95;1683329;85;22362;-62
2021/11/20 00:03:01;;;;;;;61.65;33.18;;;;;;;5.45;100.00;99679.64;1655582;85;21042;-62
2021/11/20 00:05:34;;;;;;;66.12;35.50;;;;;;;5.62;100.00;99675.27;1647473;85;21092;-62
2021/11/20 00:08:05;;;;;;;62.40;32.50;;;;;;;5.49;100.00;99674.95;1641443;85;22237;-62
2021/11/20 00:10:35;;;;;;;65.08;33.25;;;;;;;5.46;100.00;99668.35;1638042;85;21498;-62
2021/11/20 00:13:02;;;;;;;62.25;30.43;;;;;;;6.12;100.00;99657.83;1626841;85;20937;-61
2021/11/20 00:15:32;;;;;;;62.48;32.95;;;;;;;6.78;100.00;99639.16;1630615;85;21037;-64
2021/11/20 00:18:00;;;;;;;61.58;32.40;;;;;;;6.49;100.00;99636.45;1642457;85;21115;-67
2021/11/20 00:20:28;;;;;;;66.97;33.58;;;;;;;6.42;100.00;99632.43;1638354;85;21166;-62
2021/11/20 00:22:55;;;;;;;66.28;32.33;;;;;;;6.69;100.00;99623.84;1641591;86;20908;-61
2021/11/20 00:25:28;;;;;;;60.12;29.75;;;;;;;6.72;100.00;99610.05;1647799;85;21565;-61
2021/11/20 00:27:58;;;;;;;56.05;29.75;;;;;;;6.56;100.00;99607.09;1633568;86;21019;-65
2021/11/20 00:30:30;;;;;;;56.23;29.18;;;;;;;6.79;100.00;99602.41;1649817;86;21565;-62
2021/11/20 00:33:00;;;;;;;52.83;29.60;;;;;;;5.80;100.00;99599.58;1649022;86;21201;-70
2021/11/20 00:35:32;;;;;;;60.23;30.15;;;;;;;5.93;100.00;99604.72;1685265;84;21069;-63
2021/11/20 00:37:59;;;;;;;56.80;29.15;;;;;;;5.73;100.00;99601.70;1685708;84;21109;-61
2021/11/20 00:40:32;;;;;;;52.23;27.98;;;;;;;5.96;100.00;99593.55;1685807;85;21567;-62
2021/11/20 00:42:58;;;;;;;50.92;27.85;;;;;;;5.75;100.00;99590.69;1659217;85;20948;-62
2021/11/20 00:45:26;;;;;;;53.60;28.90;;;;;;;5.69;100.00;99604.31;1649673;86;22517;-61
2021/11/20 00:47:56;;;;;;;53.73;27.77;;;;;;;5.63;100.00;99599.80;1649067;86;21103;-72
2021/11/20 00:50:24;;;;;;;54.63;28.87;;;;;;;5.84;100.00;99589.20;1649819;86;21424;-61
2021/11/20 00:52:51;;;;;;;51.73;28.85;;;;;;;5.90;100.00;99586.42;1649232;86;21067;-74
2021/11/20 00:55:24;;;;;;;51.33;27.15;;;;;;;6.00;100.00;99590.94;1649679;86;21158;-62
2021/11/20 00:57:52;;;;;;;54.87;28.43;;;;;;;6.14;100.00;99587.30;1649941;86;21986;-75
2021/11/20 01:00:23;;;;;;;49.08;26.62;;;;;;;6.11;100.00;99579.89;1649423;86;20964;-62
2021/11/20 01:02:50;;;;;;;46.88;26.15;;;;;;;5.90;100.00;99577.37;1648891;86;21555;-63
2021/11/20 01:05:17;;;;;;;54.15;27.85;;;;;;;5.81;100.00;99566.27;1637044;86;21055;-62
2021/11/20 01:07:45;;;;;;;50.88;26.93;;;;;;;5.85;100.00;99551.22;1635492;87;20920;-75
2021/11/20 01:10:15;;;;;;;51.20;27.00;;;;;;;6.10;100.00;99548.05;1635760;87;21242;-61
2021/11/20 01:12:43;;;;;;;47.38;25.57;;;;;;;6.08;100.00;99540.92;1635570;87;21091;-75
2021/11/20 01:15:14;;;;;;;46.73;24.37;;;;;;;6.16;100.00;99536.19;1635636;87;20991;-61
2021/11/20 01:17:42;;;;;;;50.33;26.90;;;;;;;6.00;100.00;99534.02;1626353;87;20968;-72
2021/11/20 01:20:11;;;;;;;49.90;25.75;;;;;;;6.20;100.00;99526.61;1635974;87;21131;-62
2021/11/20 01:22:40;;;;;;;47.60;24.10;;;;;;;6.49;100.00;99519.94;1626883;87;21168;-76
2021/11/20 01:25:14;;;;;;;49.00;25.65;;;;;;;6.80;100.00;99518.03;1618116;87;21539;-61
2021/11/20 01:27:46;;;;;;;51.75;26.50;;;;;;;6.85;100.00;99514.09;1634556;87;20925;-73
2021/11/20 01:30:33;;;;;;;50.73;26.33;;;;;;;6.77;100.00;99520.16;1635325;87;21060;-65
2021/11/20 01:33:00;;;;;;;46.70;25.77;;;;;;;6.86;100.00;99513.94;1636035;87;21158;-61
2021/11/20 01:35:28;;;;;;;50.88;25.60;;;;;;;6.87;100.00;99507.77;1635651;87;21124;-73
2021/11/20 01:37:57;;;;;;;54.88;27.55;;;;;;;6.78;100.00;99499.28;1635181;87;21072;-60
2021/11/20 01:40:29;;;;;;;48.50;24.95;;;;;;;7.11;100.00;99495.53;1635840;87;21135;-71
2021/11/20 01:42:56;;;;;;;47.48;24.92;;;;;;;6.66;100.00;99497.28;1616651;87;22319;-60
2021/11/20 01:45:37;;;;;;;55.50;26.17;;;;;;;6.86;100.00;99480.73;1635718;87;21041;-63
2021/11/20 01:48:36;;;;;;;52.08;27.25;;;;;;;7.26;100.00;99477.69;1635704;87;21231;-74
2021/11/20 01:51:15;;;;;;;51.15;24.60;;;;;;;7.10;100.00;99468.82;1629827;87;20981;-73
2021/11/20 01:53:54;;;;;;;44.58;23.27;;;;;;;7.13;100.00;99466.38;1635282;87;21032;-76
2021/11/20 01:56:27;;;;;;;54.33;27.17;;;;;;;7.31;100.00;99454.64;1635939;87;21568;-61
2021/11/20 01:59:18;;;;;;;45.25;23.47;;;;;;;7.41;100.00;99445.77;1635382;87;21541;-65
2021/11/20 02:02:25;;;;;;;44.67;23.52;;;;;;;7.24;100.00;99435.61;1567040;87;22193;-62
2021/11/20 02:05:29;;;;;;;45.52;22.80;;;;;;;6.88;100.00;99436.03;1635551;85;21036;-62
2021/11/20 02:08:21;;;;;;;50.70;25.50;;;;;;;7.16;100.00;99430.53;1635108;87;21195;-69
2021/11/20 02:11:00;;;;;;;49.55;23.87;;;;;;;7.07;100.00;99411.66;1636165;87;21020;-62
2021/11/20 02:13:30;;;;;;;50.25;24.60;;;;;;;7.12;100.00;99411.61;1635069;87;21079;-63
2021/11/20 02:16:08;;;;;;;43.87;23.73;;;;;;;6.76;100.00;99407.98;1635729;87;21163;-63
2021/11/20 02:18:41;;;;;;;46.23;22.67;;;;;;;7.02;100.00;99404.94;1625597;87;21029;-61
2021/11/20 02:21:23;;;;;;;46.73;22.50;;;;;;;6.97;100.00;99394.78;1616428;87;21032;-74
2021/11/20 02:23:52;;;;;;;45.10;22.98;;;;;;;6.85;100.00;99386.67;1628366;87;21032;-63
2021/11/20 02:26:19;;;;;;;47.53;24.27;;;;;;;6.78;100.00;99385.31;1636149;87;21016;-62
2021/11/20 02:28:49;;;;;;;44.45;22.42;;;;;;;5.96;100.00;99393.06;1635639;87;21517;-75
2021/11/20 02:31:24;;;;;;;45.52;23.38;;;;;;;6.13;100.00;99383.37;1633964;87;21114;-61
2021/11/20 02:33:52;;;;;;;43.58;23.73;;;;;;;6.82;100.00;99380.09;1635994;87;21104;-62
2021/11/20 02:36:22;;;;;;;42.62;21.97;;;;;;;6.21;100.00;99381.20;1617097;87;21092;-61
2021/11/20 02:39:07;;;;;;;42.80;23.30;;;;;;;6.92;100.00;99372.52;1616034;87;21039;-74
2021/11/20 02:41:36;;;;;;;42.38;22.32;;;;;;;7.41;100.00;99373.16;1635851;87;21121;-65
2021/11/20 02:44:04;;;;;;;38.85;21.60;;;;;;;7.10;100.00;99368.25;1636137;87;20913;-61
2021/11/20 02:46:35;;;;;;;38.13;20.80;;;;;;;7.11;100.00;99364.16;1635211;87;21067;-75
2021/11/20 02:49:02;;;;;;;34.70;19.62;;;;;;;7.07;100.00;99370.70;1612156;87;21693;-60
2021/11/20 02:51:37;;;;;;;37.08;21.30;;;;;;;7.19;100.00;99356.28;1625570;87;20961;-60
2021/11/20 02:54:12;;;;;;;;;;;;;;;7.17;100.00;99355.67;1629298;87;21168;-60
2021/11/20 02:56:45;;;;;;;40.73;20.90;;;;;;;7.00;100.00;99365.44;1635752;87;20242;-61
2021/11/20 02:59:13;;;;;;;38.30;20.10;;;;;;;7.33;100.00;99356.44;1635896;87;21001;-60
2021/11/20 03:01:42;;;;;;;39.35;20.10;;;;;;;7.45;100.00;99345.87;1635824;87;21063;-61
2021/11/20 03:04:12;;;;;;;40.85;21.23;;;;;;;7.49;100.00;99341.92;1638074;86;20964;-73
2021/11/20 03:06:40;;;;;;;39.50;20.75;;;;;;;7.53;100.00;99338.77;1640159;86;21679;-60
2021/11/20 03:09:08;;;;;;;36.03;20.20;;;;;;;7.44;100.00;99329.52;1649765;86;21090;-62
2021/11/20 03:11:36;;;;;;;36.35;20.23;;;;;;;7.47;100.00;99327.86;1639601;86;21036;-61
2021/11/20 03:14:04;;;;;;;36.88;20.95;;;;;;;7.46;100.00;99320.25;1649629;86;21103;-73
2021/11/20 03:16:39;;;;;;;36.60;19.98;;;;;;;6.74;100.00;99316.73;1639664;86;21709;-61
2021/11/20 03:19:06;;;;;;;31.20;18.52;;;;;;;7.10;100.00;99328.88;1650242;86;21438;-62
2021/11/20 03:21:36;;;;;;;31.02;18.67;;;;;;;6.67;100.00;99321.52;1649729;86;20964;-74
2021/11/20 03:24:05;;;;;;;36.50;20.15;;;;;;;7.43;100.00;99313.66;1649689;86;20963;-62
2021/11/20 03:26:33;;;;;;;34.83;18.90;;;;;;;7.07;100.00;99313.20;1649491;86;21541;-62
2021/11/20 03:29:01;;;;;;;34.23;19.92;;;;;;;7.25;100.00;99305.02;1649973;85;21555;-62
2021/11/20 03:31:29;;;;;;;33.50;18.85;;;;;;;7.31;100.00;99294.38;1645267;86;21184;-70
2021/11/20 03:33:58;;;;;;;33.80;18.20;;;;;;;6.71;100.00;99283.42;1646278;86;21075;-61
2021/11/20 03:36:25;;;;;;;28.85;16.55;;;;;;;6.79;100.00;99290.28;1649283;86;20972;-66
2021/11/20 03:38:54;;;;;;;30.43;17.55;;;;;;;6.73;100.00;99285.31;1649822;86;21122;-62
2021/11/20 03:41:23;;;;;;;30.65;18.75;;;;;;;7.02;100.00;99284.45;1649887;86;21110;-63
2021/11/20 03:43:51;;;;;;;29.18;17.67;;;;;;;7.09;100.00;99281.14;1649373;86;21081;-61
2021/11/20 03:46:19;;;;;;;32.45;17.23;;;;;;;7.38;100.00;99284.87;1649128;86;21616;-61
2021/11/20 03:48:49;;;;;;;27.32;16.35;;;;;;;7.17;100.00;99281.81;1649971;86;21636;-62
2021/11/20 03:51:17;;;;;;;29.90;18.17;;;;;;;7.25;100.00;99280.89;1649801;86;21035;-61
2021/11/20 03:53:45;;;;;;;30.72;17.73;;;;;;;7.28;100.00;99270.95;1649649;86;21533;-75
2021/11/20 03:56:12;;;;;;;28.50;17.60;;;;;;;7.93;100.00;99267.76;1649058;86;21153;-62
2021/11/20 03:58:41;;;;;;;28.55;16.85;;;;;;;8.15;100.00;99256.81;1649805;86;21025;-61
2021/11/20 04:01:13;;;;;;;29.75;16.97;;;;;;;7.63;100.00;99256.77;1664176;82;65502;-72
2021/11/20 04:03:39;;;;;;;;;;;;;;;7.54;100.00;99260.00;1645845;85;20964;-69
2021/11/20 04:06:12;;;;;;;28.85;17.35;;;;;;;7.54;100.00;99252.22;1652785;85;20253;-68
2021/11/20 04:08:36;;;;;;;29.00;16.93;;;;;;;7.65;100.00;99248.79;1652663;85;21855;-70
2021/11/20 04:11:05;;;;;;;26.02;15.78;;;;;;;7.76;100.00;99238.69;1622976;87;21040;-74
2021/11/20 04:13:35;;;;;;;28.67;16.32;;;;;;;8.29;100.00;99218.72;1600208;87;21039;-70
2021/11/20 04:16:05;;;;;;;30.27;17.32;;;;;;;8.46;100.00;99206.25;1648334;86;21666;-76
2021/11/20 04:18:33;;;;;;;26.00;15.65;;;;;;;8.63;100.00;99201.48;1657612;86;20963;-72
2021/11/20 04:21:03;;;;;;;26.93;16.37;;;;;;;8.50;100.00;99193.97;1630806;86;21146;-77
2021/11/20 04:23:30;;;;;;;29.77;17.40;;;;;;;8.43;100.00;99183.26;1648126;86;21005;-70
2021/11/20 04:25:57;;;;;;;29.27;17.07;;;;;;;8.38;100.00;99175.27;1649116;86;22045;-74
2021/11/20 04:28:25;;;;;;;32.53;18.37;;;;;;;8.26;100.00;99169.30;1648182;86;20960;-72
2021/11/20 04:30:58;;;;;;;29.77;16.40;;;;;;;8.25;100.00;99165.58;1633740;86;21036;-75
2021/11/20 04:33:25;;;;;;;30.95;18.07;;;;;;;7.95;100.00;99164.55;1622583;86;21119;-67
2021/11/20 04:35:52;;;;;;;34.15;20.23;;;;;;;7.78;100.00;99171.87;1645044;86;21733;-76
2021/11/20 04:38:19;;;;;;;32.78;20.30;;;;;;;7.94;100.00;99164.26;1631264;86;21032;-67
2021/11/20 04:40:47;;;;;;;27.42;17.00;;;;;;;8.27;100.00;99160.51;1591517;88;21329;-77
2021/11/20 04:43:15;;;;;;;27.98;17.10;;;;;;;8.50;100.00;99156.30;1632148;87;20968;-67
2021/11/20 04:45:42;;;;;;;27.80;17.25;;;;;;;8.92;100.00;99140.58;1641064;87;21621;-75
2021/11/20 04:48:09;;;;;;;30.50;17.65;;;;;;;9.09;100.00;99135.77;1629681;86;21760;-68
2021/11/20 04:50:40;;;;;;;27.85;16.55;;;;;;;9.01;100.00;99124.57;1619837;86;21084;-76
2021/11/20 04:53:07;;;;;;;28.02;17.20;;;;;;;9.69;100.00;99127.38;1628755;86;21133;-76
2021/11/20 04:55:35;;;;;;;26.05;16.67;;;;;;;9.29;100.00;99118.38;1629516;86;21011;-69
2021/11/20 04:58:03;;;;;;;24.70;15.60;;;;;;;9.74;100.00;99120.57;1609513;87;21419;-66
2021/11/20 05:00:42;;;;;;;29.55;16.60;;;;;;;9.70;100.00;99115.98;1629702;86;21476;-76
2021/11/20 05:03:13;;;;;;;24.92;15.03;;;;;;;9.66;100.00;99126.00;1622374;87;20971;-78
2021/11/20 05:05:43;;;;;;;26.35;16.15;;;;;;;9.57;100.00;99130.31;1623642;87;21513;-70
2021/11/20 05:08:11;;;;;;;26.93;16.07;;;;;;;9.67;100.00;99118.48;1626587;87;21900;-76
2021/11/20 05:10:39;;;;;;;27.80;17.40;;;;;;;9.37;100.00;99119.95;1649037;86;22353;-75
2021/11/20 05:13:07;;;;;;;27.20;15.93;;;;;;;9.47;100.00;99101.63;1649345;86;21047;-78
2021/11/20 05:15:37;;;;;;;28.00;16.05;;;;;;;9.24;100.00;99099.95;1648725;86;21139;-68
2021/11/20 05:18:05;;;;;;;24.25;15.88;;;;;;;8.23;100.00;99098.80;1648787;86;21840;-75
2021/11/20 05:20:36;;;;;;;29.27;16.75;;;;;;;6.99;100.00;99095.67;1647917;86;21024;-75
2021/11/20 05:23:04;;;;;;;29.10;16.67;;;;;;;7.33;100.00;99084.23;1628611;86;21115;-75
2021/11/20 05:25:31;;;;;;;29.57;18.10;;;;;;;7.42;100.00;99083.08;1648370;86;21059;-76
2021/11/20 05:27:58;;;;;;;28.42;17.12;;;;;;;7.76;100.00;99092.63;1648737;86;21055;-76
2021/11/20 05:30:30;;;;;;;28.25;17.20;;;;;;;8.03;100.00;99091.75;1648755;86;21013;-77
2021/11/20 05:32:59;;;;;;;29.10;17.42;;;;;;;8.16;100.00;99079.80;1605432;87;21559;-76
2021/11/20 05:35:28;;;;;;;29.23;17.70;;;;;;;8.52;100.00;99068.62;1601027;88;21814;-68
2021/11/20 05:37:56;;;;;;;28.35;17.23;;;;;;;8.46;100.00;99061.61;1635111;86;21357;-76
2021/11/20 05:40:24;;;;;;;25.82;16.55;;;;;;;8.44;100.00;99050.61;1635099;86;21061;-77
2021/11/20 05:42:53;;;;;;;25.75;15.72;;;;;;;8.19;100.00;99059.45;1635172;86;21003;-75
2021/11/20 05:45:23;;;;;;;25.23;16.20;;;;;;;8.45;100.00;99062.61;1635945;86;21704;-75
2021/11/20 05:47:50;;;;;;;23.32;14.43;;;;;;;8.70;100.00;99064.61;1633848;87;21170;-73
2021/11/20 05:50:20;;;;;;;24.95;16.05;;;;;;;8.65;100.00;99048.84;1635149;86;21070;-75
2021/11/20 05:52:50;;;;;;;26.50;14.63;;;;;;;8.77;100.00;99052.42;1634630;87;21042;-77
2021/11/20 05:55:17;;;;;;;22.20;14.13;;;;;;;8.95;100.00;99036.23;1634846;86;21026;-73
2021/11/20 05:57:44;;;;;;;22.87;14.43;;;;;;;8.79;100.00;99043.95;1633852;86;20884;-73
2021/11/20 06:00:20;;;;;;;24.00;13.85;;;;;;;8.82;100.00;99035.72;1634755;86;21610;-75
2021/11/20 06:02:52;;;;;;;19.40;13.43;;;;;;;8.47;100.00;99025.55;1634200;86;21003;-76
2021/11/20 06:05:19;;;;;;;21.12;13.25;;;;;;;8.63;100.00;99023.55;1635310;86;21027;-73
2021/11/20 06:07:46;;;;;;;21.50;13.45;;;;;;;8.79;100.00;99019.26;1606803;87;21091;-72
2021/11/20 06:10:14;;;;;;;21.70;13.43;;;;;;;8.98;100.00;99018.94;1634350;86;21133;-74
2021/11/20 06:12:41;;;;;;;22.45;14.18;;;;;;;9.00;100.00;99033.81;1634215;86;21163;-73
2021/11/20 06:15:10;;;;;;;21.25;13.30;;;;;;;8.98;100.00;99028.83;1633866;86;21012;-73
2021/11/20 06:17:37;;;;;;;22.95;14.65;;;;;;;9.20;100.00;99028.56;1629834;86;21105;-76
2021/11/20 06:20:06;;;;;;;22.60;14.13;;;;;;;9.42;100.00;99022.09;1633623;87;21548;-73
2021/11/20 06:22:33;;;;;;;21.65;14.87;;;;;;;9.63;100.00;99010.63;1640335;85;21083;-74
2021/11/20 06:25:01;;;;;;;21.55;13.35;;;;;;;9.60;100.00;99007.64;1638211;85;21148;-69
2021/11/20 06:27:28;;;;;;;20.52;13.20;;;;;;;9.79;100.00;98997.63;1606933;87;22329;-75
2021/11/20 06:29:57;;;;;;;22.40;13.15;;;;;;;10.11;100.00;98988.52;1633798;86;21010;-72
2021/11/20 06:32:25;;;;;;;20.48;12.93;;;;;;;9.75;100.00;98995.95;1634363;86;21300;-76
2021/11/20 06:34:55;;;;;;;18.95;13.05;;;;;;;9.49;100.00;98993.47;1631777;86;21072;-70
2021/11/20 06:37:34;;;;;;;18.32;11.90;;;;;;;9.55;100.00;98999.66;1599261;87;21176;-71
2021/11/20 06:40:04;;;;;;;24.82;11.73;;;;;;;8.69;100.00;98986.39;1625536;87;20977;-72
2021/11/20 06:42:32;;;;;;;17.40;11.45;;;;;;;8.83;100.00;98981.98;1634234;86;21015;-72
2021/11/20 06:44:59;;;;;;;19.48;11.97;;;;;;;9.25;100.00;98970.27;1625737;86;21085;-71
2021/11/20 06:47:28;;;;;;;35.15;17.98;;;;;;;9.38;100.00;98967.59;1633858;87;21107;-69
2021/11/20 06:49:55;;;;;;;31.05;16.65;;;;;;;9.64;100.00;98956.27;1635957;86;21162;-71
2021/11/20 06:52:23;;;;;;;25.62;16.00;;;;;;;9.67;100.00;98941.55;1634816;86;21608;-74
2021/11/20 06:55:07;;;;;;;17.32;11.30;;;;;;;9.66;100.00;98943.05;1633188;86;21833;-72
2021/11/20 07:00:29;;;;;;;15.93;10.05;;;;;;;9.57;100.00;98934.69;1634264;86;20921;-74
2021/11/20 07:03:14;;;;;;;16.32;9.60;;;;;;;10.66;100.00;98907.43;1645937;86;21203;-72
2021/11/20 07:05:53;;;;;;;16.15;10.18;;;;;;;10.63;100.00;98903.95;1646689;86;21445;-67
2021/11/20 07:08:21;;;;;;;12.30;8.88;;;;;;;9.96;100.00;98899.83;1652455;86;21571;-73
2021/11/20 07:10:48;;;;;;;14.93;9.10;;;;;;;10.19;100.00;98897.94;1632497;86;21623;-72
2021/11/20 07:13:15;;;;;;;13.78;8.70;;;;;;;10.29;100.00;98893.56;1653689;86;21474;-76
2021/11/20 07:15:43;;;;;;;13.53;8.95;;;;;;;9.92;100.00;98902.53;1652969;86;21173;-67
2021/11/20 07:18:10;;;;;;;10.43;7.42;;;;;;;9.58;100.00;98893.86;1625197;87;21029;-71
2021/11/20 07:20:42;;;;;;;15.93;9.50;;;;;;;9.41;100.00;98895.67;1639278;86;21119;-68
2021/11/20 07:23:20;;;;;;;15.28;9.75;;;;;;;9.59;100.00;98884.56;1648945;86;20972;-73
2021/11/20 07:25:48;;;;;;;13.18;8.60;;;;;;;9.67;100.00;98890.02;1639132;86;21051;-72
2021/11/20 07:28:17;;;;;;;12.37;8.40;;;;;;;9.88;100.00;98888.34;1647841;86;21188;-74
2021/11/20 07:30:44;;;;;;;11.78;8.23;;;;;;;10.10;100.00;98875.77;1648176;86;21020;-67
2021/11/20 07:33:12;;;;;;;13.72;9.05;;;;;;;10.29;100.00;98871.93;1647582;86;21052;-72
2021/11/20 07:35:44;;;;;;;14.23;10.20;;;;;;;10.16;100.00;98857.20;1647089;86;21087;-71
2021/11/20 07:38:14;;;;;;;12.45;7.80;;;;;;;10.20;100.00;98850.05;1648615;86;21111;-71
2021/11/20 07:40:42;;;;;;;12.73;7.33;;;;;;;10.24;100.00;98849.11;1648707;86;21198;-67
2021/11/20 07:43:09;;;;;;;11.80;8.53;;;;;;;10.27;100.00;98822.67;1648311;86;21581;-73
2021/11/20 07:45:58;;;;;;;10.53;7.62;;;;;;;10.55;100.00;98810.95;1636200;86;21400;-73
2021/11/20 07:48:26;;;;;;;10.50;7.72;;;;;;;10.00;100.00;98816.90;1647741;86;21577;-70
2021/11/20 07:50:55;;;;;;;9.50;7.10;;;;;;;9.17;100.00;98826.21;1644710;86;21411;-74
2021/11/20 07:53:29;;;;;;;10.82;7.87;;;;;;;9.19;100.00;98818.47;1637148;86;21146;-74
2021/11/20 07:55:58;;;;;;;9.98;7.37;;;;;;;9.13;100.00;98818.51;1643683;87;21039;-77
2021/11/20 07:58:27;;;;;;;9.88;6.80;;;;;;;9.22;100.00;98797.77;1624537;87;21090;-74
2021/11/20 08:00:55;;;;;;;17.10;13.08;;;;;;;9.32;100.00;98773.89;1630057;86;21536;-70
2021/11/20 08:03:23;;;;;;;25.43;17.75;;;;;;;9.56;100.00;98781.44;1627983;87;21017;-72
2021/11/20 08:05:58;;;;;;;13.05;10.63;;;;;;;9.66;100.00;98766.94;1625763;87;22291;-72
2021/11/20 08:08:42;;;;;;;9.88;7.40;;;;;;;9.89;100.00;98753.32;1624480;87;21148;-75
2021/11/20 08:11:14;;;;;;;11.33;8.08;;;;;;;10.13;100.00;98746.97;1626012;87;21152;-73
2021/11/20 08:13:41;;;;;;;10.35;7.72;;;;;;;9.88;100.00;98747.80;1632903;86;21017;-74
2021/11/20 08:16:14;;;;;;;9.98;7.70;;;;;;;9.46;100.00;98749.38;1619672;85;21104;-78
2021/11/20 08:18:45;;;;;;;9.43;7.37;;;;;;;9.93;100.00;98732.36;1588046;86;21590;-74
2021/11/20 08:21:31;;;;;;;8.45;6.72;;;;;;;10.24;100.00;98728.02;1608409;87;21129;-75
2021/11/20 08:24:02;;;;;;;8.10;5.92;;;;;;;10.29;100.00;98730.78;1624285;87;21614;-77
2021/11/20 08:26:36;;;;;;;7.87;6.20;;;;;;;10.22;100.00;98719.10;1626952;87;20984;-77
2021/11/20 08:28:58;;;;;;;8.73;6.05;;;;;;;10.28;100.00;98712.27;1621428;86;21087;-74
2021/11/20 08:31:31;;;;;;;8.43;6.00;;;;;;;10.50;100.00;98707.40;1625409;86;21586;-70
2021/11/20 08:34:17;;;;;;;9.33;6.10;;;;;;;10.62;100.00;98707.44;1623839;87;21752;-75
2021/11/20 08:36:49;;;;;;;7.95;6.22;;;;;;;10.78;100.00;98696.38;1620481;87;21021;-79
2021/11/20 08:39:35;;;;;;;7.90;5.50;;;;;;;10.98;100.00;98712.24;1625805;86;21081;-72
2021/11/20 08:42:03;;;;;;;8.13;5.95;;;;;;;10.93;100.00;98707.19;1626717;87;21631;-77
2021/11/20 08:44:31;;;;;;;7.72;5.47;;;;;;;10.85;100.00;98701.52;1635197;86;21179;-73
2021/11/20 08:47:03;;;;;;;7.22;5.60;;;;;;;11.06;100.00;98695.79;1625144;87;21029;-77
2021/11/20 08:49:30;;;;;;;7.30;5.37;;;;;;;11.22;100.00;98688.33;1627507;87;21079;-75
2021/11/20 08:51:58;;;;;;;7.20;5.35;;;;;;;11.33;100.00;98681.81;1626970;87;21168;-75
2021/11/20 08:54:25;;;;;;;7.75;4.80;;;;;;;11.02;100.00;98676.88;1627723;86;21049;-69
2021/11/20 08:56:56;;;;;;;6.95;5.10;;;;;;;11.16;100.00;98684.79;1627571;87;21969;-75
2021/11/20 08:59:25;;;;;;;;;;;;;;;11.35;100.00;98678.97;1632054;86;20948;-73
2021/11/20 09:02:26;;;;;;;6.67;4.65;;;;;;;11.53;100.00;98664.50;1629385;86;20106;-70
2021/11/20 09:05:18;;;;;;;5.73;4.17;;;;;;;10.05;100.00;98683.48;1596474;89;20974;-67
2021/11/20 09:07:54;;;;;;;5.92;4.22;;;;;;;10.35;100.00;98675.22;1618309;88;21184;-77
2021/11/20 09:10:38;;;;;;;7.20;5.13;;;;;;;10.71;100.00;98673.02;1618941;88;21162;-79
2021/11/20 09:13:17;;;;;;;7.10;4.72;;;;;;;10.74;100.00;98665.27;1618396;88;22174;-74
2021/11/20 09:15:55;;;;;;;7.65;4.87;;;;;;;10.86;100.00;98657.47;1606529;88;21099;-75
2021/11/20 09:18:24;;;;;;;7.08;4.75;;;;;;;11.17;100.00;98636.82;1585893;89;20974;-74
2021/11/20 09:20:52;;;;;;;8.17;5.63;;;;;;;11.52;100.00;98641.26;1599941;89;21109;-74
2021/11/20 09:23:36;;;;;;;5.95;3.98;;;;;;;11.68;100.00;98640.03;1619216;88;21321;-75
2021/11/20 09:26:05;;;;;;;5.50;4.00;;;;;;;11.82;100.00;98639.77;1616062;88;21012;-73
2021/11/20 09:28:32;;;;;;;6.07;3.73;;;;;;;12.16;100.00;98621.16;1588486;89;21556;-75
2021/11/20 09:31:04;;;;;;;5.93;3.50;;;;;;;12.07;100.00;98616.02;1600499;87;21769;-74
2021/11/20 09:33:31;;;;;;;5.50;3.70;;;;;;;12.70;100.00;98608.50;1624702;88;21356;-74
2021/11/20 09:35:59;;;;;;;5.20;3.50;;;;;;;12.59;100.00;98610.16;1626851;87;21468;-70
2021/11/20 09:38:46;;;;;;;5.83;3.90;;;;;;;13.17;100.00;98590.37;1605872;88;21395;-70
2021/11/20 09:41:29;;;;;;;5.67;4.17;;;;;;;14.40;100.00;98588.16;1621191;88;21908;-77
2021/11/20 09:43:59;;;;;;;4.37;3.45;;;;;;;13.41;100.00;98586.56;1624699;88;21295;-72
2021/11/20 09:46:31;;;;;;;5.30;3.63;;;;;;;13.25;100.00;98588.16;1623589;88;21118;-70
2021/11/20 09:49:06;;;;;;;5.27;3.63;;;;;;;13.96;100.00;98575.67;1626003;88;21218;-73
2021/11/20 09:51:41;;;;;;;4.33;3.03;;;;;;;13.54;100.00;98571.00;1625916;87;21205;-72
2021/11/20 09:54:13;;;;;;;5.40;3.53;;;;;;;13.32;100.00;98559.20;1619389;88;21263;-70
2021/11/20 09:56:53;;;;;;;5.60;3.77;;;;;;;13.10;100.00;98541.61;1601404;89;21837;-71
2021/11/20 09:59:43;;;;;;;3.90;2.70;;;;;;;13.38;100.00;98562.96;1601953;89;21004;-71
2021/11/20 10:02:22;;;;;;;4.72;3.00;;;;;;;13.17;100.00;98546.67;1601997;89;21310;-70
2021/11/20 10:05:02;;;;;;;5.30;2.60;;;;;;;12.93;100.00;98550.02;1640820;87;22482;-69
2021/11/20 10:07:42;;;;;;;3.60;2.50;;;;;;;13.21;100.00;98550.39;1640790;87;21363;-68
2021/11/20 10:10:28;;;;;;;5.07;2.87;;;;;;;13.06;100.00;98546.27;1640950;87;21319;-70
2021/11/20 10:13:16;;;;;;;5.37;3.37;;;;;;;13.36;100.00;98546.69;1632442;87;21306;-69
2021/11/20 10:16:07;;;;;;;4.63;2.60;;;;;;;13.15;100.00;98536.98;1635713;87;21782;-69
2021/11/20 10:18:57;;;;;;;3.85;2.50;;;;;;;12.82;100.00;98543.84;1638715;86;21744;-70
2021/11/20 10:21:56;;;;;;;3.10;1.97;;;;;;;12.83;100.00;98529.73;1638516;87;20973;-68
2021/11/20 10:24:48;;;;;;;4.20;2.90;;;;;;;13.13;100.00;98537.73;1636761;87;21635;-69
2021/11/20 10:28:00;;;;;;;4.62;3.10;;;;;;;13.24;100.00;98527.70;1610874;86;21159;-69
2021/11/20 10:30:31;;;;;;;;;;;;;;;13.60;100.00;98530.77;1604546;87;21195;-68
2021/11/20 10:33:06;;;;;;;4.60;2.70;;;;;;;13.83;100.00;98528.40;1578216;89;20151;-69
2021/11/20 10:35:51;;;;;;;5.50;3.20;;;;;;;14.00;100.00;98529.59;1635972;86;21167;-69
2021/11/20 10:38:29;;;;;;;5.25;2.98;;;;;;;12.88;100.00;98524.59;1634487;86;21324;-68
2021/11/20 10:41:23;;;;;;;4.93;2.73;;;;;;;13.13;100.00;98516.28;1647346;86;21060;-69
2021/11/20 10:43:58;;;;;;;4.37;2.87;;;;;;;13.63;100.00;98517.95;1643486;86;21361;-68
2021/11/20 10:46:30;;;;;;;6.37;2.90;;;;;;;13.06;100.00;98527.44;1642740;86;21573;-71
2021/11/20 10:49:36;;;;;;;3.67;2.70;;;;;;;13.21;100.00;98519.00;1646552;87;21303;-71
2021/11/20 10:52:18;;;;;;;5.80;3.40;;;;;;;13.33;100.00;98509.26;1647331;87;21734;-69
2021/11/20 10:55:03;;;;;;;5.87;3.43;;;;;;;13.66;100.00;98505.42;1631705;87;21347;-71
2021/11/20 10:58:13;;;;;;;7.00;4.27;;;;;;;13.72;100.00;98501.31;1647469;87;21369;-70
2021/11/20 11:01:03;;;;;;;5.73;3.80;;;;;;;13.72;100.00;98499.21;1626114;86;21333;-70
2021/11/20 11:03:40;;;;;;;5.83;4.10;;;;;;;13.99;100.00;98492.66;1637163;86;21657;-69
2021/11/20 11:06:30;;;;;;;4.93;3.57;;;;;;;13.88;100.00;98480.77;1646887;87;21176;-68
2021/11/20 11:09:47;;;;;;;4.77;3.20;;;;;;;14.37;100.00;98494.29;1643572;86;21712;-70
2021/11/20 11:12:35;;;;;;;6.07;3.43;;;;;;;14.98;100.00;98499.95;1637423;87;21461;-69
2021/11/20 11:15:22;;;;;;;5.77;3.77;;;;;;;13.94;100.00;98491.28;1635678;86;21089;-70
2021/11/20 11:18:17;;;;;;;6.33;3.83;;;;;;;14.62;100.00;98492.38;1658787;84;21540;-70
2021/11/20 11:21:01;;;;;;;14.60;7.70;;;;;;;15.28;100.00;98497.22;1655702;86;22543;-68
2021/11/20 11:23:57;;;;;;;7.80;4.90;;;;;;;14.66;100.00;98491.36;1655587;85;21445;-68
2021/11/20 11:26:28;;;;;;;19.50;8.00;;;;;;;14.25;100.00;98489.22;1655073;86;21750;-68
2021/11/20 11:29:15;;;;;;;17.97;6.63;;;;;;;14.50;100.00;98485.23;1655340;85;21777;-69
2021/11/20 11:31:44;;;;;;;12.63;8.17;;;;;;;14.88;100.00;98476.81;1645561;86;21712;-70
2021/11/20 11:34:27;;;;;;;11.27;6.10;;;;;;;15.07;100.00;98491.08;1632218;86;21382;-71
2021/11/20 11:37:27;;;;;;;12.30;6.63;;;;;;;15.20;100.00;98478.81;1654639;86;21141;-68
2021/11/20 11:40:34;;;;;;;10.10;5.97;;;;;;;15.26;100.00;98475.14;1645366;85;21346;-69
2021/11/20 11:43:22;;;;;;;8.17;5.13;;;;;;;14.92;100.00;98476.56;1655062;85;21387;-74
2021/11/20 11:46:13;;;;;;;9.87;4.80;;;;;;;13.67;100.00;98481.59;1656046;85;21139;-69
2021/11/20 11:49:26;;;;;;;9.90;5.30;;;;;;;13.50;100.00;98484.83;1659311;85;21550;-71
2021/11/20 11:52:02;;;;;;;7.03;4.80;;;;;;;13.58;100.00;98468.16;1655946;85;21015;-69
2021/11/20 11:54:40;;;;;;;7.90;6.10;;;;;;;13.33;100.00;98476.55;1652787;85;21387;-70